Hlavní strana
METAR-TAF:

METAR-TAF

Letiště :

Záporoží, Ukrajina

zeměpisná šířka: 47-52-02N, zeměpisná délka: 035-18-59E, výška: 114 m

Aktuální stav počasí

Zpráva byla vytvořena před 14 minutami, v 05:00 UTC
Severoseverozápadní vítr 6 kt
Teplota 5°C
Vlhkost vzduchu 41%
Tlak 1027 hPa
Viditelnost 10 km a více
Žádná oblačnost pod 1500 m, nevyskytují se cumulonimby.

METAR: UKDE 050500Z 34003MPS CAVOK 05/M07 Q1027 R20L/090070 NOSIG

Čas: 08:14 (05:14 UTC)

Předpověď počasí

Zpráva byla vytvořena před 3 hodinami a 8 minutami, v 02:06 UTC
Předpověď platná od 05 v 03 UTC do 05 v 12 UTC
Severní vítr 10 kt
Viditelnost 10 km a více
Polojasno ve výšce 3000 ft
Dočasný
od 05 v 06 UTC do 05 v 12 UTC
Severoseverovýchodní vítr 12 kt s nárazy do 21 kt

TAF: UKDE 050206Z 0503/0512 01005MPS 9999 SCT030 TX14/0512Z TN01/0503Z TEMPO 0506/0512 02006G11MPS

Stav a předpovědi počasí z více než 4 000 letišť (zprávy METAR a TAF).

Červené a žluté tečky na mapě představují dostupné meteorologické stanice.

Když kurzor umístíte na tečku, zobrazí se název stanice.

Pak kliknutím zobrazíte stav a předpověď počasí.

Chcete-li změnit mapu, kliknutím na zelené tlačítko se znaménkem +mapu přiblížíte, kliknutím na zelené tlačítko se znaménkem – mapu oddálíte a kliknutím na zelené šipky přejdete na sousední mapy.


METAR-TAF: